Time;durP1;ratioP1;P1;durP2;ratioP2;P2;SDS_P1;SDS_P2;PMS_P1;PMS_P2;Temp;Humidity;BMP_temperature;BMP_pressure;BME280_temperature;BME280_humidity;BME280_pressure;Samples;Min_cycle;Max_cycle;Signal;HPM_P1;HPM_P2
2023/06/12 00:01:03;;;;;;;5.80;5.20;;;17.20;2.30;;;;;;5014814;28;20183;-70
2023/06/12 00:03:29;;;;;;;7.60;5.30;;;17.30;2.70;;;;;;5014573;28;20195;-70
2023/06/12 00:06:00;;;;;;;6.00;5.37;;;17.30;2.60;;;;;;5014880;28;20187;-69
2023/06/12 00:08:29;;;;;;;5.97;5.47;;;17.40;2.70;;;;;;5010083;28;20434;-70
2023/06/12 00:10:54;;;;;;;6.37;5.73;;;17.40;2.60;;;;;;5012917;28;20828;-70
2023/06/12 00:13:20;;;;;;;5.40;4.70;;;17.40;2.60;;;;;;5013589;28;20427;-70
2023/06/12 00:15:46;;;;;;;6.40;5.80;;;17.40;2.60;;;;;;5014392;28;20183;-70
2023/06/12 00:18:12;;;;;;;5.37;4.87;;;17.50;2.90;;;;;;5015097;28;20187;-70
2023/06/12 00:20:38;;;;;;;5.63;5.00;;;17.50;2.80;;;;;;5014922;28;20208;-70
2023/06/12 00:23:03;;;;;;;5.33;4.83;;;17.40;2.80;;;;;;5014663;28;20223;-70
2023/06/12 00:25:29;;;;;;;7.10;4.93;;;17.40;3.00;;;;;;5015274;28;20227;-70
2023/06/12 00:27:54;;;;;;;5.43;4.93;;;17.40;3.10;;;;;;5015024;28;20249;-70
2023/06/12 00:30:20;;;;;;;6.03;5.53;;;17.40;3.20;;;;;;5015163;28;20204;-70
2023/06/12 00:32:46;;;;;;;5.83;5.30;;;17.40;3.40;;;;;;5013716;28;20188;-71
2023/06/12 00:35:12;;;;;;;6.40;5.67;;;17.40;3.30;;;;;;5015147;28;20411;-69
2023/06/12 00:37:41;;;;;;;6.00;5.40;;;17.40;3.40;;;;;;5014603;28;20688;-70
2023/06/12 00:40:09;;;;;;;6.10;5.60;;;17.30;3.30;;;;;;5013697;28;20609;-70
2023/06/12 00:42:47;;;;;;;6.70;6.10;;;17.40;3.50;;;;;;5014574;28;20430;-70
2023/06/12 00:45:13;;;;;;;5.33;4.93;;;17.30;3.50;;;;;;5013660;28;21019;-70
2023/06/12 00:47:39;;;;;;;6.27;5.67;;;17.30;3.60;;;;;;5013563;28;20431;-69
2023/06/12 00:50:09;;;;;;;6.00;5.50;;;17.30;3.80;;;;;;5013543;28;20477;-70
2023/06/12 00:52:35;;;;;;;6.20;5.60;;;17.30;3.90;;;;;;5012346;28;20931;-69
2023/06/12 00:55:02;;;;;;;6.83;5.20;;;17.30;3.90;;;;;;5012186;28;20578;-70
2023/06/12 00:57:27;;;;;;;5.60;5.13;;;17.40;3.90;;;;;;5013332;28;20518;-70
2023/06/12 00:59:54;;;;;;;6.37;5.60;;;17.50;3.90;;;;;;5013521;28;20869;-70
2023/06/12 01:02:21;;;;;;;4.90;4.40;;;17.50;3.80;;;;;;5013065;28;20547;-70
2023/06/12 01:04:49;;;;;;;6.63;5.90;;;17.50;3.80;;;;;;5013343;28;20455;-70
2023/06/12 01:07:45;;;;;;;5.83;5.33;;;17.60;4.00;;;;;;5011880;28;20450;-69
2023/06/12 01:10:14;;;;;;;6.40;5.13;;;17.60;3.90;;;;;;5013254;28;20839;-69
2023/06/12 01:12:41;;;;;;;5.67;5.17;;;17.70;4.10;;;;;;5013031;28;21003;-70
2023/06/12 01:15:07;;;;;;;6.70;5.40;;;17.80;4.10;;;;;;5013161;28;20501;-70
2023/06/12 01:17:32;;;;;;;5.47;5.00;;;17.80;3.90;;;;;;5013146;28;20489;-70
2023/06/12 01:20:03;;;;;;;6.10;5.50;;;17.90;3.90;;;;;;5011738;28;20419;-70
2023/06/12 01:22:31;;;;;;;5.90;5.30;;;17.90;3.70;;;;;;5012744;28;20206;-70
2023/06/12 01:25:27;;;;;;;7.77;5.53;;;17.90;3.90;;;;;;5012293;28;20458;-70
2023/06/12 01:28:06;;;;;;;7.90;4.80;;;17.90;3.70;;;;;;5028185;28;20858;-69
2023/06/12 01:30:37;;;;;;;5.67;4.77;;;17.90;3.60;;;;;;5013394;28;20419;-70
2023/06/12 01:33:07;;;;;;;6.43;5.83;;;18.00;3.70;;;;;;5011498;28;20415;-70
2023/06/12 01:35:36;;;;;;;5.40;4.90;;;18.00;3.80;;;;;;5013093;28;20888;-70
2023/06/12 01:38:09;;;;;;;6.10;5.20;;;17.90;3.70;;;;;;5012691;28;20457;-70
2023/06/12 01:40:38;;;;;;;5.83;5.37;;;17.90;3.80;;;;;;5013299;28;20411;-70
2023/06/12 01:43:04;;;;;;;6.13;4.80;;;17.90;3.70;;;;;;5012678;28;20459;-70
2023/06/12 01:45:31;;;;;;;5.70;5.10;;;17.90;3.80;;;;;;5012973;28;20773;-70
2023/06/12 01:47:57;;;;;;;5.70;5.20;;;17.90;4.00;;;;;;5011751;28;20192;-70
2023/06/12 01:50:23;;;;;;;5.73;4.80;;;17.80;4.00;;;;;;5011489;28;20419;-70
2023/06/12 01:52:49;;;;;;;5.30;4.80;;;17.90;4.20;;;;;;5012381;28;20541;-70
2023/06/12 01:55:14;;;;;;;5.73;5.23;;;17.90;4.20;;;;;;5012752;28;20179;-70
2023/06/12 01:57:40;;;;;;;6.20;5.60;;;17.90;4.80;;;;;;5012496;28;20188;-70
2023/06/12 02:00:09;;;;;;;7.83;6.17;;;17.90;4.30;;;;;;5012510;28;20526;-70
2023/06/12 02:02:35;;;;;;;6.40;5.80;;;17.90;4.40;;;;;;5012053;28;20578;-69
2023/06/12 02:05:01;;;;;;;5.20;4.70;;;17.90;4.50;;;;;;5010908;28;20435;-70
2023/06/12 02:07:26;;;;;;;5.33;4.93;;;17.90;4.60;;;;;;5012237;28;20442;-70
2023/06/12 02:09:52;;;;;;;5.97;5.07;;;17.80;4.70;;;;;;5011160;28;20187;-69
2023/06/12 02:12:17;;;;;;;5.80;5.30;;;17.80;4.80;;;;;;5012022;28;20176;-70
2023/06/12 02:14:43;;;;;;;5.93;5.20;;;17.80;4.90;;;;;;5012271;28;20377;-70
2023/06/12 02:17:09;;;;;;;5.50;5.00;;;17.80;4.90;;;;;;5012007;28;20618;-70
2023/06/12 02:19:36;;;;;;;5.20;4.80;;;17.70;5.10;;;;;;5012511;28;20199;-69
2023/06/12 02:22:01;;;;;;;5.60;5.10;;;17.70;5.30;;;;;;5012024;28;20651;-70
2023/06/12 02:24:32;;;;;;;6.00;5.13;;;17.70;5.40;;;;;;5012278;28;20462;-71
2023/06/12 02:26:57;;;;;;;5.47;4.97;;;17.60;5.30;;;;;;5010908;28;20199;-70
2023/06/12 02:29:23;;;;;;;5.10;4.60;;;17.70;5.40;;;;;;5012124;28;20900;-69
2023/06/12 02:31:49;;;;;;;5.70;5.20;;;17.60;5.40;;;;;;5011965;28;20673;-69
2023/06/12 02:34:15;;;;;;;6.13;5.57;;;17.60;5.50;;;;;;5010685;28;20461;-69
2023/06/12 02:36:46;;;;;;;4.90;4.50;;;17.50;5.80;;;;;;5011990;28;20657;-70
2023/06/12 02:39:15;;;;;;;6.20;5.43;;;17.40;5.80;;;;;;5015855;28;20184;-70
2023/06/12 02:41:42;;;;;;;6.50;5.43;;;17.40;5.80;;;;;;5015790;28;20464;-71
2023/06/12 02:44:08;;;;;;;6.30;5.60;;;17.40;5.80;;;;;;5014580;28;20454;-70
2023/06/12 02:46:51;;;;;;;5.43;4.93;;;17.40;5.80;;;;;;5015874;28;20411;-70
2023/06/12 02:49:17;;;;;;;5.43;4.93;;;17.40;5.80;;;;;;5014475;28;20176;-70
2023/06/12 02:51:43;;;;;;;5.50;5.07;;;17.40;5.80;;;;;;5015569;28;20813;-70
2023/06/12 02:54:09;;;;;;;5.90;5.30;;;17.40;5.80;;;;;;5014441;28;20434;-70
2023/06/12 02:56:34;;;;;;;5.27;4.77;;;17.40;5.80;;;;;;5015625;28;20176;-70
2023/06/12 02:59:00;;;;;;;8.60;5.10;;;17.30;5.80;;;;;;5015835;28;20255;-70
2023/06/12 03:01:27;;;;;;;6.97;5.33;;;17.30;5.70;;;;;;5015660;28;20635;-69
2023/06/12 03:03:53;;;;;;;6.07;5.57;;;17.30;5.90;;;;;;5015639;28;20875;-70
2023/06/12 03:06:23;;;;;;;5.70;5.20;;;17.30;6.50;;;;;;5015723;28;20414;-70
2023/06/12 03:08:49;;;;;;;7.40;4.97;;;17.30;6.50;;;;;;5016186;28;20191;-70
2023/06/12 03:11:14;;;;;;;5.17;4.70;;;17.20;6.70;;;;;;5015786;28;20916;-70
2023/06/12 03:13:40;;;;;;;5.70;5.20;;;17.20;6.90;;;;;;5015556;28;20176;-71
2023/06/12 03:16:09;;;;;;;5.97;5.37;;;17.20;6.80;;;;;;5015279;28;20234;-69
2023/06/12 03:18:35;;;;;;;6.13;5.43;;;17.20;7.00;;;;;;5015195;28;20192;-70
2023/06/12 03:21:01;;;;;;;6.47;5.87;;;17.10;7.40;;;;;;5015116;28;20464;-70
2023/06/12 03:23:27;;;;;;;8.97;6.03;;;17.20;7.40;;;;;;5015384;28;21006;-71
2023/06/12 03:25:53;;;;;;;6.50;5.90;;;17.20;7.50;;;;;;5015620;28;20411;-70
2023/06/12 03:28:18;;;;;;;6.70;5.80;;;17.20;7.50;;;;;;5015145;28;20488;-70
2023/06/12 03:30:44;;;;;;;5.10;4.60;;;17.20;7.50;;;;;;5015425;28;20175;-68
2023/06/12 03:33:11;;;;;;;7.20;5.20;;;17.20;7.60;;;;;;5015272;28;20182;-70
2023/06/12 03:35:36;;;;;;;5.97;4.67;;;17.20;7.70;;;;;;5015245;28;20176;-69
2023/06/12 03:38:02;;;;;;;6.40;5.80;;;17.10;7.80;;;;;;5014915;28;20505;-70
2023/06/12 03:40:28;;;;;;;5.67;5.17;;;17.10;8.00;;;;;;5014026;28;20269;-70
2023/06/12 03:42:53;;;;;;;5.87;5.20;;;17.10;8.20;;;;;;5014351;28;20199;-70
2023/06/12 03:45:19;;;;;;;6.17;5.17;;;17.10;8.10;;;;;;5014602;28;20199;-70
2023/06/12 03:47:44;;;;;;;7.20;5.57;;;17.10;8.10;;;;;;5014618;28;20717;-70
2023/06/12 03:50:10;;;;;;;6.17;5.57;;;17.10;8.10;;;;;;5013901;28;20178;-70
2023/06/12 03:52:36;;;;;;;6.20;4.83;;;17.10;8.10;;;;;;5013850;28;20179;-71
2023/06/12 03:55:02;;;;;;;5.63;4.90;;;17.10;8.10;;;;;;5014656;28;20836;-70
2023/06/12 03:57:27;;;;;;;5.60;5.10;;;17.10;8.30;;;;;;5015187;28;20199;-70
2023/06/12 03:59:53;;;;;;;6.77;6.17;;;17.20;8.20;;;;;;5015775;28;20362;-70
2023/06/12 04:02:19;;;;;;;6.00;5.40;;;17.10;8.10;;;;;;5015108;28;20187;-70
2023/06/12 04:04:44;;;;;;;6.90;6.20;;;17.20;8.30;;;;;;5015078;28;20199;-70
2023/06/12 04:07:13;;;;;;;6.00;5.40;;;17.20;8.30;;;;;;5014036;28;20202;-70
2023/06/12 04:09:38;;;;;;;6.37;5.70;;;17.20;8.30;;;;;;5014406;28;20176;-70
2023/06/12 04:12:04;;;;;;;7.20;5.50;;;17.20;8.30;;;;;;5013237;28;20427;-70
2023/06/12 04:14:29;;;;;;;5.87;5.30;;;17.20;8.20;;;;;;5016090;28;20545;-69
2023/06/12 04:16:55;;;;;;;6.90;6.10;;;17.20;7.90;;;;;;5016708;28;20675;-70
2023/06/12 04:19:21;;;;;;;5.60;5.10;;;17.20;8.20;;;;;;5016184;28;20188;-70
2023/06/12 04:21:46;;;;;;;6.13;5.30;;;17.20;8.00;;;;;;5015830;28;20180;-70
2023/06/12 04:24:15;;;;;;;6.07;5.47;;;17.30;7.80;;;;;;5014883;28;20687;-70
2023/06/12 04:26:44;;;;;;;9.60;5.37;;;17.40;7.60;;;;;;5015021;28;20175;-70
2023/06/12 04:29:12;;;;;;;8.20;5.40;;;17.50;7.60;;;;;;5014471;28;20415;-67
2023/06/12 04:31:38;;;;;;;5.20;4.63;;;17.50;7.60;;;;;;5014674;28;20411;-70
2023/06/12 04:34:06;;;;;;;7.93;6.13;;;17.50;7.30;;;;;;5014959;28;20454;-70
2023/06/12 04:36:33;;;;;;;5.27;4.77;;;17.60;7.20;;;;;;5014633;28;20407;-70
2023/06/12 04:39:01;;;;;;;5.33;4.93;;;17.70;6.90;;;;;;5014138;28;20492;-69
2023/06/12 04:41:27;;;;;;;6.33;5.03;;;17.80;6.70;;;;;;5013710;28;20419;-70
2023/06/12 04:43:58;;;;;;;5.77;5.17;;;17.80;6.90;;;;;;5013639;28;20465;-70
2023/06/12 04:46:25;;;;;;;5.80;5.30;;;17.90;6.80;;;;;;5013867;28;20415;-74
2023/06/12 04:48:51;;;;;;;9.50;6.20;;;17.90;6.70;;;;;;5013644;28;20514;-69
2023/06/12 04:51:16;;;;;;;6.83;6.23;;;18.00;6.80;;;;;;5013428;28;20834;-69
2023/06/12 04:53:43;;;;;;;6.63;6.03;;;18.00;6.70;;;;;;5013224;28;20184;-69
2023/06/12 04:56:12;;;;;;;5.77;5.17;;;18.00;6.80;;;;;;5013476;28;20519;-70
2023/06/12 04:58:40;;;;;;;5.60;5.00;;;18.10;6.80;;;;;;5013537;28;20438;-69
2023/06/12 05:01:06;;;;;;;6.03;5.43;;;18.20;6.80;;;;;;5012539;28;20406;-68
2023/06/12 05:03:32;;;;;;;4.70;4.30;;;18.20;6.50;;;;;;5012987;28;20823;-66
2023/06/12 05:05:58;;;;;;;7.30;5.53;;;18.30;6.40;;;;;;5013452;28;20218;-67
2023/06/12 05:08:24;;;;;;;6.53;5.87;;;18.40;6.40;;;;;;5011940;28;20845;-67
2023/06/12 05:10:50;;;;;;;6.57;6.00;;;18.50;6.50;;;;;;5013149;28;20410;-67
2023/06/12 05:13:15;;;;;;;6.30;5.50;;;18.60;6.40;;;;;;5012936;28;20636;-68
2023/06/12 05:15:41;;;;;;;5.53;4.93;;;18.70;5.40;;;;;;5013123;28;20417;-69
2023/06/12 05:18:07;;;;;;;6.87;5.20;;;18.80;6.80;;;;;;5012957;28;20192;-68
2023/06/12 05:20:33;;;;;;;9.80;6.20;;;18.90;5.70;;;;;;5012953;28;20434;-68
2023/06/12 05:22:58;;;;;;;6.60;6.00;;;19.00;4.70;;;;;;5012461;28;20813;-68
2023/06/12 05:25:24;;;;;;;6.17;5.67;;;19.10;4.50;;;;;;5012833;28;20177;-67
2023/06/12 05:27:50;;;;;;;6.80;6.10;;;19.10;4.70;;;;;;5011617;28;20203;-68
2023/06/12 05:30:16;;;;;;;6.53;5.90;;;19.20;4.70;;;;;;5012864;28;20176;-70
2023/06/12 05:32:41;;;;;;;5.90;5.23;;;19.30;4.50;;;;;;5011720;28;20184;-70
2023/06/12 05:35:07;;;;;;;6.57;5.93;;;19.50;4.40;;;;;;5012627;28;20417;-68
2023/06/12 05:37:33;;;;;;;7.77;6.97;;;19.60;3.80;;;;;;5012524;28;20317;-69
2023/06/12 05:39:58;;;;;;;7.13;6.43;;;19.80;2.90;;;;;;5012576;28;20419;-69
2023/06/12 05:42:24;;;;;;;7.87;7.17;;;20.00;2.60;;;;;;5012094;28;20618;-69
2023/06/12 05:44:50;;;;;;;7.80;5.90;;;20.80;1.50;;;;;;5012384;28;20290;-69
2023/06/12 05:47:15;;;;;;;6.40;5.80;;;21.50;1.00;;;;;;5012346;28;20262;-68
2023/06/12 05:49:41;;;;;;;5.77;5.37;;;21.70;1.00;;;;;;5011190;28;20271;-69
2023/06/12 05:52:07;;;;;;;8.00;7.40;;;21.90;1.00;;;;;;5012138;28;20168;-69
2023/06/12 05:54:36;;;;;;;5.70;5.20;;;23.10;1.00;;;;;;5012093;28;20191;-69
2023/06/12 05:57:02;;;;;;;6.97;6.27;;;24.70;1.00;;;;;;5012082;28;20537;-69
2023/06/12 05:59:28;;;;;;;6.53;5.93;;;25.90;1.00;;;;;;5012191;28;20447;-68
2023/06/12 06:01:56;;;;;;;8.30;7.70;;;26.40;1.00;;;;;;5011707;28;20466;-69
2023/06/12 06:04:21;;;;;;;6.53;5.93;;;27.30;1.00;;;;;;5030524;28;20274;-70
2023/06/12 06:06:48;;;;;;;7.13;6.37;;;28.50;1.00;;;;;;5032883;28;20513;-70
2023/06/12 06:09:17;;;;;;;6.20;5.80;;;30.90;1.00;;;;;;5031412;28;20270;-70
2023/06/12 06:11:42;;;;;;;7.27;6.73;;;32.90;1.00;;;;;;5032314;28;20418;-69
2023/06/12 06:14:08;;;;;;;7.17;6.60;;;32.80;1.00;;;;;;5032210;28;20463;-69
2023/06/12 06:16:33;;;;;;;8.80;6.93;;;33.60;1.00;;;;;;5014652;28;20308;-70
2023/06/12 06:18:59;;;;;;;6.40;6.00;;;34.20;1.00;;;;;;5012381;28;20230;-70
2023/06/12 06:21:25;;;;;;;9.10;6.43;;;34.20;1.00;;;;;;5012273;28;20180;-68
2023/06/12 06:23:50;;;;;;;8.03;7.30;;;35.10;1.00;;;;;;5012087;28;20200;-68
2023/06/12 06:26:16;;;;;;;8.67;7.23;;;35.20;1.00;;;;;;5014322;28;20258;-70
2023/06/12 06:28:41;;;;;;;14.70;8.10;;;36.90;1.00;;;;;;5013430;28;20192;-70
2023/06/12 06:31:07;;;;;;;7.20;6.70;;;37.60;1.00;;;;;;5011955;28;20263;-69
2023/06/12 06:33:33;;;;;;;7.80;7.30;;;37.40;1.00;;;;;;5012676;28;20669;-70
2023/06/12 06:35:58;;;;;;;7.03;6.63;;;38.00;1.00;;;;;;5012722;28;20210;-69
2023/06/12 06:38:24;;;;;;;7.60;7.10;;;38.00;1.00;;;;;;5010809;28;20219;-70
2023/06/12 06:40:51;;;;;;;6.60;6.10;;;38.60;1.00;;;;;;5012251;28;20180;-70
2023/06/12 06:43:17;;;;;;;7.17;6.67;;;38.10;1.00;;;;;;5007986;28;20875;-68
2023/06/12 06:45:43;;;;;;;7.10;6.63;;;38.60;1.00;;;;;;5006550;28;20419;-69
2023/06/12 06:48:09;;;;;;;6.77;6.23;;;38.70;1.00;;;;;;5007821;28;20210;-69
2023/06/12 06:50:35;;;;;;;7.37;6.77;;;38.70;1.00;;;;;;5006897;28;20883;-69
2023/06/12 06:53:02;;;;;;;6.93;6.47;;;38.90;1.00;;;;;;5023444;28;20517;-69
2023/06/12 06:55:27;;;;;;;7.10;6.60;;;38.70;1.00;;;;;;5008275;28;20183;-69
2023/06/12 06:57:54;;;;;;;8.30;7.60;;;40.10;1.00;;;;;;5005595;28;20447;-69
2023/06/12 07:00:21;;;;;;;6.37;5.97;;;41.30;1.00;;;;;;5007172;28;20185;-69
2023/06/12 07:02:50;;;;;;;6.30;5.90;;;41.60;1.00;;;;;;5007681;28;20429;-69
2023/06/12 07:05:16;;;;;;;6.87;6.37;;;41.30;1.00;;;;;;5008337;28;20430;-71
2023/06/12 07:07:44;;;;;;;7.93;6.97;;;41.80;1.00;;;;;;5007804;28;20820;-69
2023/06/12 07:10:09;;;;;;;6.73;6.20;;;42.40;1.00;;;;;;5007651;28;20741;-69
2023/06/12 07:12:35;;;;;;;7.00;6.50;;;41.50;1.00;;;;;;5010964;28;20446;-69
2023/06/12 07:15:00;;;;;;;7.53;6.90;;;40.90;1.00;;;;;;5011325;28;20177;-69
2023/06/12 07:17:26;;;;;;;6.90;6.30;;;40.20;1.00;;;;;;5011222;28;20227;-68
2023/06/12 07:19:52;;;;;;;12.87;6.53;;;39.80;1.00;;;;;;5012120;28;20247;-68
2023/06/12 07:22:17;;;;;;;6.73;6.13;;;39.50;1.00;;;;;;5011227;28;20203;-69
2023/06/12 07:24:43;;;;;;;7.47;6.97;;;39.80;1.00;;;;;;5013771;28;20298;-68
2023/06/12 07:27:08;;;;;;;7.37;6.67;;;39.60;1.00;;;;;;5014834;28;20227;-70
2023/06/12 07:29:35;;;;;;;7.53;7.03;;;39.50;1.00;;;;;;5014873;28;20175;-68
2023/06/12 07:32:00;;;;;;;7.13;6.73;;;38.50;1.00;;;;;;5014626;28;20168;-68
2023/06/12 07:34:26;;;;;;;7.40;6.80;;;38.10;1.00;;;;;;5014869;28;20904;-69
2023/06/12 07:36:52;;;;;;;7.33;6.60;;;38.70;1.00;;;;;;5014514;28;20687;-68
2023/06/12 07:39:18;;;;;;;24.53;9.77;;;38.30;1.00;;;;;;5013565;28;20179;-68
2023/06/12 07:41:44;;;;;;;7.60;7.00;;;39.00;1.00;;;;;;5013121;28;20271;-68
2023/06/12 07:44:13;;;;;;;8.00;7.40;;;39.50;1.00;;;;;;5013310;28;20542;-68
2023/06/12 07:46:40;;;;;;;8.10;7.50;;;40.70;1.00;;;;;;5014395;28;20219;-68
2023/06/12 07:49:06;;;;;;;7.13;6.57;;;40.90;1.00;;;;;;5013170;28;20499;-68
2023/06/12 07:51:32;;;;;;;7.13;6.63;;;41.50;1.00;;;;;;5014562;28;20415;-69
2023/06/12 07:53:57;;;;;;;7.20;6.70;;;39.50;1.00;;;;;;5014310;28;20249;-69
2023/06/12 07:56:24;;;;;;;6.53;5.83;;;38.90;1.00;;;;;;5014447;28;20188;-70
2023/06/12 07:58:50;;;;;;;7.53;6.83;;;39.20;1.00;;;;;;5012962;28;20196;-71
2023/06/12 08:01:17;;;;;;;7.10;6.60;;;39.70;1.00;;;;;;5014182;28;20426;-68
2023/06/12 08:03:43;;;;;;;7.03;6.53;;;38.50;1.00;;;;;;5012554;28;20466;-69
2023/06/12 08:06:11;;;;;;;6.93;6.43;;;37.30;1.00;;;;;;5014120;28;20403;-69
2023/06/12 08:08:47;;;;;;;8.17;7.43;;;36.30;1.00;;;;;;5012883;28;20434;-69
2023/06/12 08:11:13;;;;;;;7.10;6.60;;;36.00;1.00;;;;;;5014145;28;20419;-69
2023/06/12 08:13:40;;;;;;;6.90;6.40;;;36.80;1.00;;;;;;5013723;28;20418;-69
2023/06/12 08:16:05;;;;;;;6.60;6.20;;;37.30;1.00;;;;;;5014106;28;20415;-69
2023/06/12 08:18:31;;;;;;;14.13;6.80;;;37.40;1.00;;;;;;5013963;28;20457;-69
2023/06/12 08:20:57;;;;;;;6.80;6.30;;;37.10;1.00;;;;;;5013940;28;20701;-69
2023/06/12 08:23:23;;;;;;;7.70;7.10;;;36.70;1.00;;;;;;5013615;28;20200;-69
2023/06/12 08:25:48;;;;;;;8.67;7.50;;;36.60;1.00;;;;;;5014045;28;20411;-69
2023/06/12 08:28:14;;;;;;;7.57;7.00;;;36.00;1.00;;;;;;5013852;28;20254;-69
2023/06/12 08:30:39;;;;;;;7.00;6.50;;;37.00;1.00;;;;;;5013898;28;20176;-69
2023/06/12 08:33:05;;;;;;;7.93;7.23;;;37.90;1.00;;;;;;5013453;28;20202;-69
2023/06/12 08:35:30;;;;;;;6.57;6.07;;;38.00;1.00;;;;;;5013738;28;20172;-69
2023/06/12 08:37:56;;;;;;;7.87;7.37;;;36.20;1.00;;;;;;5013220;28;20294;-69
2023/06/12 08:40:22;;;;;;;8.27;7.67;;;34.80;1.00;;;;;;5013461;28;20658;-69
2023/06/12 08:42:51;;;;;;;7.73;7.10;;;35.90;1.00;;;;;;5013065;28;20176;-69
2023/06/12 08:45:20;;;;;;;9.10;8.40;;;36.30;1.00;;;;;;5012361;28;20881;-69
2023/06/12 08:47:49;;;;;;;7.50;6.90;;;36.70;1.00;;;;;;5013222;28;20800;-69
2023/06/12 08:50:19;;;;;;;7.87;7.20;;;37.60;1.00;;;;;;5012689;28;20422;-69
2023/06/12 08:52:49;;;;;;;6.93;6.50;;;37.30;1.00;;;;;;5021445;28;20783;-69
2023/06/12 08:55:15;;;;;;;7.30;6.80;;;37.40;1.00;;;;;;5031496;28;20510;-69
2023/06/12 08:57:42;;;;;;;7.23;6.63;;;36.80;1.00;;;;;;5016819;28;20458;-69
2023/06/12 09:00:12;;;;;;;6.57;6.17;;;34.70;1.00;;;;;;5013024;28;20398;-68
2023/06/12 09:02:44;;;;;;;7.00;6.50;;;34.80;1.00;;;;;;5011477;28;20892;-69
2023/06/12 09:05:19;;;;;;;7.60;7.00;;;35.60;1.00;;;;;;5012976;28;20458;-69
2023/06/12 09:07:47;;;;;;;6.60;6.10;;;36.20;1.00;;;;;;5012869;28;20426;-69
2023/06/12 09:10:16;;;;;;;7.57;6.87;;;36.60;1.00;;;;;;5031401;28;20429;-68
2023/06/12 09:12:44;;;;;;;7.10;6.50;;;35.20;1.00;;;;;;5032163;28;20464;-68
2023/06/12 09:15:16;;;;;;;7.60;6.90;;;34.70;1.00;;;;;;5033133;28;20414;-69
2023/06/12 09:17:42;;;;;;;7.37;6.87;;;33.80;1.00;;;;;;5032459;28;20429;-69
2023/06/12 09:20:27;;;;;;;7.90;7.10;;;31.50;1.00;;;;;;5032545;28;20426;-68
2023/06/12 09:22:53;;;;;;;7.23;6.73;;;29.30;1.00;;;;;;5032208;28;20633;-68
2023/06/12 09:25:20;;;;;;;7.63;7.13;;;27.80;1.00;;;;;;5032379;28;20414;-68
2023/06/12 09:27:46;;;;;;;7.33;6.83;;;27.20;1.00;;;;;;5032491;28;20845;-70
2023/06/12 09:30:12;;;;;;;7.33;6.73;;;26.50;1.00;;;;;;5032569;28;20437;-68
2023/06/12 09:32:40;;;;;;;8.03;7.30;;;26.20;1.00;;;;;;5032080;28;20409;-68
2023/06/12 09:35:06;;;;;;;7.23;6.53;;;26.00;1.00;;;;;;5032069;28;20542;-68
2023/06/12 09:37:32;;;;;;;7.70;6.90;;;25.90;1.00;;;;;;5030631;28;20466;-68
2023/06/12 09:40:14;;;;;;;8.43;6.20;;;26.00;1.00;;;;;;5032162;28;20976;-68
2023/06/12 09:42:41;;;;;;;7.77;7.27;;;25.90;1.00;;;;;;5031888;28;20481;-68
2023/06/12 09:45:18;;;;;;;7.43;6.83;;;25.70;1.00;;;;;;5026896;28;20553;-68
2023/06/12 09:47:46;;;;;;;7.70;7.20;;;25.70;1.00;;;;;;5011776;28;20433;-67
2023/06/12 09:50:13;;;;;;;7.43;6.77;;;25.90;1.00;;;;;;5011069;28;20501;-68
2023/06/12 09:52:45;;;;;;;7.67;7.17;;;26.00;1.00;;;;;;5011985;28;20407;-68
2023/06/12 09:55:13;;;;;;;7.27;6.80;;;26.00;1.00;;;;;;5010950;28;20441;-67
2023/06/12 09:57:41;;;;;;;7.83;7.13;;;26.00;1.00;;;;;;5011868;28;20434;-70
2023/06/12 10:00:08;;;;;;;6.73;6.27;;;26.00;1.00;;;;;;5012222;28;20928;-68
2023/06/12 10:02:35;;;;;;;7.43;6.83;;;26.00;1.00;;;;;;5012017;28;20441;-68
2023/06/12 10:05:11;;;;;;;7.20;6.70;;;26.20;1.00;;;;;;5012073;28;20458;-68
2023/06/12 10:07:51;;;;;;;7.50;6.90;;;26.10;1.00;;;;;;5012107;28;20422;-68
2023/06/12 10:10:18;;;;;;;7.00;6.53;;;26.30;1.00;;;;;;5011854;28;20422;-68
2023/06/12 10:12:45;;;;;;;7.57;7.00;;;26.30;1.00;;;;;;5011687;28;20971;-68
2023/06/12 10:15:12;;;;;;;7.33;6.67;;;26.50;1.00;;;;;;5010857;28;20434;-68
2023/06/12 10:17:40;;;;;;;7.10;6.60;;;26.60;1.00;;;;;;5011834;28;20439;-68
2023/06/12 10:20:09;;;;;;;6.40;6.00;;;26.60;1.00;;;;;;5012132;28;20908;-68
2023/06/12 10:22:34;;;;;;;8.70;7.27;;;26.40;1.00;;;;;;5011944;28;20784;-68
2023/06/12 10:25:01;;;;;;;8.00;7.10;;;26.30;1.00;;;;;;5011887;28;20465;-68
2023/06/12 10:27:28;;;;;;;8.80;7.90;;;26.00;1.00;;;;;;5010469;28;20283;-68
2023/06/12 10:29:56;;;;;;;7.50;6.90;;;25.90;1.00;;;;;;5010544;28;20422;-69
2023/06/12 10:32:22;;;;;;;6.87;6.27;;;25.90;1.00;;;;;;5011527;28;20415;-68
2023/06/12 10:34:52;;;;;;;7.50;6.80;;;25.90;1.00;;;;;;5011700;28;20423;-69
2023/06/12 10:37:23;;;;;;;7.87;7.37;;;26.00;1.00;;;;;;5012105;28;20868;-69
2023/06/12 10:40:07;;;;;;;7.20;6.60;;;26.10;1.00;;;;;;5010500;28;20430;-69
2023/06/12 10:42:40;;;;;;;6.33;5.93;;;26.10;1.00;;;;;;5011553;28;20418;-69
2023/06/12 10:45:28;;;;;;;7.57;7.07;;;26.30;1.00;;;;;;5016882;28;20469;-69
2023/06/12 10:48:03;;;;;;;7.30;6.70;;;26.40;1.00;;;;;;5020963;28;20434;-69
2023/06/12 10:50:30;;;;;;;7.33;6.73;;;26.30;1.00;;;;;;5031217;28;20445;-70
2023/06/12 10:52:59;;;;;;;6.57;6.17;;;26.10;1.00;;;;;;5030932;28;20456;-72
2023/06/12 10:55:27;;;;;;;8.17;7.10;;;26.20;1.00;;;;;;5031619;28;20402;-69
2023/06/12 10:57:55;;;;;;;7.67;6.97;;;26.10;1.00;;;;;;5031114;28;20496;-70
2023/06/12 11:00:35;;;;;;;7.77;7.17;;;25.90;1.00;;;;;;5035050;28;20770;-71
2023/06/12 11:03:05;;;;;;;7.47;6.90;;;26.10;1.00;;;;;;5034787;28;20414;-71
2023/06/12 11:05:32;;;;;;;8.30;7.50;;;26.20;1.00;;;;;;5035144;28;20414;-71
2023/06/12 11:08:07;;;;;;;7.73;6.83;;;26.30;1.00;;;;;;5034965;28;20923;-71
2023/06/12 11:10:34;;;;;;;7.50;6.60;;;26.20;1.00;;;;;;5033890;28;20449;-73
2023/06/12 11:13:00;;;;;;;7.67;7.17;;;26.30;1.00;;;;;;5033441;28;20421;-70
2023/06/12 11:15:26;;;;;;;8.73;7.93;;;26.40;1.00;;;;;;5033799;28;20795;-70
2023/06/12 11:17:52;;;;;;;6.97;6.47;;;26.60;1.00;;;;;;5034598;28;20422;-70
2023/06/12 11:20:20;;;;;;;7.70;7.10;;;26.60;1.00;;;;;;5034864;28;20175;-70
2023/06/12 11:22:47;;;;;;;6.80;6.20;;;26.70;1.00;;;;;;5034370;28;20412;-70
2023/06/12 11:25:13;;;;;;;8.60;8.00;;;26.70;1.00;;;;;;5033298;28;20473;-70
2023/06/12 11:27:38;;;;;;;7.20;6.70;;;26.60;1.00;;;;;;5033177;28;20444;-71
2023/06/12 11:30:14;;;;;;;9.73;6.90;;;26.50;1.00;;;;;;5036497;28;20410;-68
2023/06/12 11:32:42;;;;;;;6.73;6.30;;;26.20;1.00;;;;;;5036816;28;20182;-69
2023/06/12 11:35:09;;;;;;;7.40;6.73;;;26.10;1.00;;;;;;5036011;28;20418;-69
2023/06/12 11:37:37;;;;;;;6.80;6.30;;;26.20;1.00;;;;;;5034548;28;20527;-69
2023/06/12 11:40:09;;;;;;;8.37;7.67;;;26.20;1.00;;;;;;5034901;28;20431;-69
2023/06/12 11:42:36;;;;;;;7.60;6.97;;;26.30;1.00;;;;;;5035394;28;20445;-69
2023/06/12 11:45:06;;;;;;;7.80;6.80;;;26.30;1.00;;;;;;5031842;28;20462;-69
2023/06/12 11:47:33;;;;;;;8.00;7.13;;;26.40;1.00;;;;;;5018564;28;20466;-69
2023/06/12 11:49:59;;;;;;;8.37;7.40;;;26.50;1.00;;;;;;5017510;28;20423;-69
2023/06/12 11:52:25;;;;;;;7.57;6.90;;;26.60;1.00;;;;;;5016777;28;20498;-69
2023/06/12 11:55:05;;;;;;;7.43;6.87;;;26.60;1.00;;;;;;5015826;28;20572;-69
2023/06/12 11:57:31;;;;;;;6.80;6.30;;;26.50;1.00;;;;;;5015384;28;20950;-74
2023/06/12 11:59:58;;;;;;;7.03;6.53;;;26.60;1.00;;;;;;5016020;28;20427;-70
2023/06/12 12:02:38;;;;;;;12.90;8.83;;;26.70;1.00;;;;;;5015472;28;20191;-69
2023/06/12 12:05:06;;;;;;;7.83;6.43;;;26.80;1.00;;;;;;5015483;28;20455;-75
2023/06/12 12:07:32;;;;;;;7.90;7.40;;;26.90;1.00;;;;;;5014820;28;20847;-69
2023/06/12 12:10:10;;;;;;;6.93;6.43;;;27.00;1.00;;;;;;5014357;28;20415;-69
2023/06/12 12:12:50;;;;;;;6.40;5.90;;;26.80;1.00;;;;;;5014192;28;20496;-69
2023/06/12 12:15:20;;;;;;;7.57;7.07;;;26.70;1.00;;;;;;5013246;28;20426;-69
2023/06/12 12:17:46;;;;;;;7.87;7.10;;;26.70;1.00;;;;;;5014951;28;21204;-69
2023/06/12 12:20:23;;;;;;;9.73;6.73;;;26.70;1.00;;;;;;5015240;28;20459;-69
2023/06/12 12:22:54;;;;;;;7.53;7.03;;;26.90;1.00;;;;;;5015102;28;20442;-69
2023/06/12 12:25:24;;;;;;;7.50;6.90;;;27.00;1.00;;;;;;5015045;28;20470;-69
2023/06/12 12:27:51;;;;;;;7.03;6.53;;;26.90;1.00;;;;;;4995232;28;20467;-69
2023/06/12 12:30:17;;;;;;;11.27;7.53;;;26.80;1.00;;;;;;4995172;28;20502;-69
2023/06/12 12:32:48;;;;;;;7.60;7.00;;;26.80;1.00;;;;;;4995066;28;20427;-70
2023/06/12 12:35:17;;;;;;;9.20;6.70;;;26.80;1.00;;;;;;4994994;28;20419;-70
2023/06/12 12:37:44;;;;;;;7.60;7.00;;;26.80;1.00;;;;;;4994514;28;20466;-69
2023/06/12 12:40:13;;;;;;;7.23;6.70;;;26.80;1.00;;;;;;4995176;28;20522;-71
2023/06/12 12:42:39;;;;;;;6.90;6.40;;;26.90;1.00;;;;;;4994661;28;20499;-70
2023/06/12 12:45:06;;;;;;;7.83;7.20;;;27.10;1.00;;;;;;5005340;28;20569;-70
2023/06/12 12:47:33;;;;;;;7.70;7.10;;;27.20;1.00;;;;;;5034529;28;20445;-70
2023/06/12 12:49:59;;;;;;;7.77;7.07;;;27.10;1.00;;;;;;5034526;28;20417;-70
2023/06/12 12:52:24;;;;;;;10.23;6.37;;;27.10;1.00;;;;;;5034970;28;20904;-70
2023/06/12 12:54:51;;;;;;;7.20;6.50;;;27.20;1.00;;;;;;5034189;28;20175;-71
2023/06/12 12:57:17;;;;;;;6.70;6.20;;;27.10;1.00;;;;;;5034218;28;20207;-71
2023/06/12 12:59:44;;;;;;;6.60;6.10;;;27.20;1.00;;;;;;5034167;28;20410;-69